createdAt,value
2018-04-23T00:01:39.787Z,96419.27
2018-04-23T00:04:07.665Z,96421.67
2018-04-23T00:06:33.587Z,96412.90
2018-04-23T00:08:59.484Z,96417.65
2018-04-23T00:11:25.336Z,96412.78
2018-04-23T00:13:51.270Z,96414.31
2018-04-23T00:16:20.539Z,96408.06
2018-04-23T00:18:46.441Z,96408.97
2018-04-23T00:21:14.050Z,96407.16
2018-04-23T00:23:39.959Z,96404.66
2018-04-23T00:26:09.711Z,96408.81
2018-04-23T00:28:35.639Z,96404.22
2018-04-23T00:31:02.984Z,96408.60
2018-04-23T00:33:28.877Z,96410.13
2018-04-23T00:35:58.167Z,96403.58
2018-04-23T00:38:24.078Z,96408.00
2018-04-23T00:40:53.318Z,96403.13
2018-04-23T00:43:19.223Z,96408.74
2018-04-23T00:45:45.095Z,96410.87
2018-04-23T00:48:11.012Z,96411.63
2018-04-23T00:50:36.949Z,96410.40
2018-04-23T00:53:15.844Z,96412.52
2018-04-23T00:55:41.751Z,96412.43
2018-04-23T00:58:07.667Z,96413.51
2018-04-23T01:00:33.646Z,96414.45
2018-04-23T01:02:59.539Z,96419.03
2018-04-23T01:05:25.438Z,96413.41
2018-04-23T01:07:51.307Z,96414.02
2018-04-23T01:10:17.243Z,96417.65
2018-04-23T01:12:43.584Z,96414.44
2018-04-23T01:15:09.457Z,96421.19
2018-04-23T01:17:38.644Z,96417.18
2018-04-23T01:20:04.599Z,96419.53
2018-04-23T01:22:30.451Z,96418.66
2018-04-23T01:24:56.398Z,96421.16
2018-04-23T01:27:22.266Z,96415.08
2018-04-23T01:29:49.435Z,96421.91
2018-04-23T01:32:15.359Z,96422.61
2018-04-23T01:34:44.291Z,96425.78
2018-04-23T01:37:10.200Z,96421.98
2018-04-23T01:39:39.849Z,96425.10
2018-04-23T01:42:05.805Z,96426.80
2018-04-23T01:44:33.658Z,96429.31
2018-04-23T01:46:59.519Z,96425.50
2018-04-23T01:49:28.464Z,96423.18
2018-04-23T01:51:54.317Z,96429.61
2018-04-23T01:54:24.044Z,96435.09
2018-04-23T01:56:49.946Z,96430.88
2018-04-23T01:59:15.888Z,96433.94
2018-04-23T02:01:41.798Z,96433.05
2018-04-23T02:04:08.909Z,96433.20
2018-04-23T02:06:34.798Z,96433.87
2018-04-23T02:09:00.702Z,96438.37
2018-04-23T02:11:29.961Z,96379.23
2018-04-23T02:13:56.535Z,96441.61
2018-04-23T02:16:24.141Z,96443.58
2018-04-23T02:18:50.050Z,96437.06
2018-04-23T02:21:18.991Z,96436.56
2018-04-23T02:23:45.082Z,96441.92
2018-04-23T02:26:14.407Z,96435.91
2018-04-23T02:28:40.378Z,96436.03
2018-04-23T02:31:09.975Z,96439.09
2018-04-23T02:33:35.895Z,96435.37
2018-04-23T02:36:01.836Z,96434.52
2018-04-23T02:38:27.798Z,96432.05
2018-04-23T02:40:53.686Z,96435.91
2018-04-23T02:43:20.669Z,96440.03
2018-04-23T02:45:46.593Z,96423.33
2018-04-23T02:48:16.340Z,96431.88
2018-04-23T02:50:42.303Z,96427.53
2018-04-23T02:53:09.565Z,96424.89
2018-04-23T02:55:35.529Z,96421.41
2018-04-23T02:58:05.181Z,96423.03
2018-04-23T03:00:31.091Z,96422.76
2018-04-23T03:02:58.709Z,96420.20
2018-04-23T03:05:24.618Z,96416.48
2018-04-23T03:07:53.340Z,96420.88
2018-04-23T03:10:19.268Z,96421.16
2018-04-23T03:12:45.156Z,96420.20
2018-04-23T03:15:11.025Z,96422.61
2018-04-23T03:17:36.927Z,96421.66
2018-04-23T03:20:05.144Z,96423.41
2018-04-23T03:22:30.999Z,96423.53
2018-04-23T03:25:00.100Z,96417.75
2018-04-23T03:27:26.034Z,96420.94
2018-04-23T03:29:55.252Z,96419.27
2018-04-23T03:32:21.199Z,96414.60
2018-04-23T03:34:50.446Z,96418.78
2018-04-23T03:37:16.458Z,96423.41
2018-04-23T03:39:44.069Z,96421.83
2018-04-23T03:42:10.027Z,96418.96
2018-04-23T03:44:39.899Z,96423.11
2018-04-23T03:47:05.807Z,96426.84
2018-04-23T03:49:31.743Z,96420.81
2018-04-23T03:51:57.668Z,96425.58
2018-04-23T03:54:23.592Z,96425.27
2018-04-23T03:56:50.479Z,96425.27
2018-04-23T03:59:16.391Z,96426.41
2018-04-23T04:01:45.284Z,96417.92
2018-04-23T04:04:11.220Z,96415.81
2018-04-23T04:06:40.531Z,96402.53
2018-04-23T04:09:06.463Z,96416.80
2018-04-23T04:11:35.046Z,96419.90
2018-04-23T04:14:13.647Z,96412.19
2018-04-23T04:16:47.785Z,96407.48
2018-04-23T04:19:13.687Z,96419.59
2018-04-23T04:21:39.551Z,96422.35
2018-04-23T04:24:05.942Z,96415.03
2018-04-23T04:26:32.039Z,96420.55
2018-04-23T04:28:58.254Z,96424.48
2018-04-23T04:31:24.147Z,96426.22
2018-04-23T04:33:50.004Z,96427.19
2018-04-23T04:36:15.915Z,96425.09
2018-04-23T04:38:41.796Z,96425.98
2018-04-23T04:41:07.669Z,96422.09
2018-04-23T04:43:33.575Z,96423.63
2018-04-23T04:45:59.502Z,96425.65
2018-04-23T04:48:25.411Z,96424.45
2018-04-23T04:50:51.315Z,96425.22
2018-04-23T04:53:17.233Z,96424.68
2018-04-23T04:55:43.111Z,96421.28
2018-04-23T04:58:10.181Z,96424.37
2018-04-23T05:00:36.043Z,96421.50
2018-04-23T05:03:01.961Z,96426.34
2018-04-23T05:05:27.847Z,96424.26
2018-04-23T05:07:53.727Z,96423.22
2018-04-23T05:10:22.730Z,96427.77
2018-04-23T05:12:48.629Z,96420.72
2018-04-23T05:15:17.564Z,96427.40
2018-04-23T05:17:43.473Z,96433.54
2018-04-23T05:20:10.999Z,96432.42
2018-04-23T05:22:36.886Z,96433.66
2018-04-23T05:25:06.411Z,96435.53
2018-04-23T05:27:32.343Z,96437.19
2018-04-23T05:30:01.654Z,96437.30
2018-04-23T05:32:27.562Z,96437.45
2018-04-23T05:34:54.965Z,96439.69
2018-04-23T05:37:20.893Z,96441.98
2018-04-23T05:39:46.796Z,96440.08
2018-04-23T05:42:12.656Z,96442.05
2018-04-23T05:44:38.526Z,96439.41
2018-04-23T05:47:06.907Z,96441.20
2018-04-23T05:49:32.847Z,96442.52
2018-04-23T05:52:02.672Z,96449.45
2018-04-23T05:54:28.546Z,96443.33
2018-04-23T05:56:55.703Z,96439.63
2018-04-23T05:59:21.631Z,96446.28
2018-04-23T06:01:50.340Z,96445.75
2018-04-23T06:04:16.222Z,96438.23
2018-04-23T06:06:46.029Z,96445.29
2018-04-23T06:09:11.899Z,96446.45
2018-04-23T06:11:40.107Z,96452.05
2018-04-23T06:14:08.298Z,96453.57
2018-04-23T06:16:34.158Z,96454.53
2018-04-23T06:19:00.077Z,96447.05
2018-04-23T06:21:25.973Z,96452.77
2018-04-23T06:23:51.963Z,96446.72
2018-04-23T06:26:17.889Z,96442.44
2018-04-23T06:28:46.906Z,96441.61
2018-04-23T06:31:12.799Z,96432.70
2018-04-23T06:33:41.299Z,96442.41
2018-04-23T06:36:07.264Z,96446.14
2018-04-23T06:38:36.591Z,96443.86
2018-04-23T06:41:02.502Z,96442.14
2018-04-23T06:43:31.633Z,96446.01
2018-04-23T06:45:57.615Z,96445.27
2018-04-23T06:48:27.065Z,96459.52
2018-04-23T06:50:52.964Z,96460.12
2018-04-23T06:53:18.926Z,96469.31
2018-04-23T06:55:44.808Z,96466.01
2018-04-23T06:58:10.742Z,96471.18
2018-04-23T07:00:37.339Z,96480.48
2018-04-23T07:03:03.225Z,96474.59
2018-04-23T07:05:32.594Z,96480.69
2018-04-23T07:07:58.536Z,96486.74
2018-04-23T07:10:28.076Z,96501.70
2018-04-23T07:12:53.900Z,96511.23
2018-04-23T07:15:21.687Z,96521.44
2018-04-23T07:17:47.615Z,96519.86
2018-04-23T07:20:16.263Z,96520.20
2018-04-23T07:22:42.135Z,96536.71
2018-04-23T07:25:11.435Z,96531.49
2018-04-23T07:27:37.352Z,96537.23
2018-04-23T07:30:03.246Z,96558.27
2018-04-23T07:32:29.188Z,96559.28
2018-04-23T07:34:55.174Z,96566.58
2018-04-23T07:37:22.931Z,96570.05
2018-04-23T07:39:48.836Z,96582.86
2018-04-23T07:42:18.272Z,96580.89
2018-04-23T07:44:44.170Z,96587.22
2018-04-23T07:47:11.961Z,96603.58
2018-04-23T07:49:37.886Z,96606.63
2018-04-23T07:52:07.504Z,96603.94
2018-04-23T07:54:33.401Z,96603.53
2018-04-23T07:57:02.915Z,96618.05
2018-04-23T07:59:28.839Z,96617.39
2018-04-23T08:01:56.355Z,96617.80
2018-04-23T08:04:22.265Z,96624.13
2018-04-23T08:06:48.221Z,96624.22
2018-04-23T08:09:14.143Z,96631.36
2018-04-23T08:11:40.033Z,96629.53
2018-04-23T08:14:07.756Z,96627.25
2018-04-23T08:16:33.649Z,96636.55
2018-04-23T08:19:03.071Z,96624.64
2018-04-23T08:21:28.998Z,96626.28
2018-04-23T08:23:59.116Z,96638.38
2018-04-23T08:26:25.048Z,96629.80
2018-04-23T08:28:51.840Z,96638.89
2018-04-23T08:31:17.775Z,96619.86
2018-04-23T08:33:46.763Z,96605.81
2018-04-23T08:36:13.200Z,96578.17
2018-04-23T08:38:42.999Z,96587.38
2018-04-23T08:41:08.911Z,96607.52
2018-04-23T08:43:34.796Z,96601.23
2018-04-23T08:46:00.671Z,96600.33
2018-04-23T08:48:26.582Z,96614.33
2018-04-23T08:50:52.783Z,96610.52
2018-04-23T08:53:18.728Z,96610.74
2018-04-23T08:55:47.970Z,96620.08
2018-04-23T08:58:13.852Z,96615.81
2018-04-23T09:00:42.355Z,96617.34
2018-04-23T09:03:08.278Z,96609.45
2018-04-23T09:05:37.311Z,96599.48
2018-04-23T09:08:03.214Z,96598.77
2018-04-23T09:10:32.661Z,96608.14
2018-04-23T09:12:58.552Z,96619.53
2018-04-23T09:15:27.639Z,96621.76
2018-04-23T09:17:53.537Z,96621.85
2018-04-23T09:20:19.403Z,96625.32
2018-04-23T09:22:45.311Z,96629.95
2018-04-23T09:25:11.216Z,96631.14
2018-04-23T09:27:38.932Z,96628.59
2018-04-23T09:30:04.879Z,96639.03
2018-04-23T09:32:33.304Z,96634.69
2018-04-23T09:34:59.207Z,96643.02
2018-04-23T09:37:29.074Z,96639.63
2018-04-23T09:39:54.984Z,96640.80
2018-04-23T09:42:22.457Z,96650.59
2018-04-23T09:44:48.360Z,96642.93
2018-04-23T09:47:18.100Z,96643.52
2018-04-23T09:49:44.007Z,96642.93
2018-04-23T09:52:11.705Z,96638.81
2018-04-23T09:54:37.561Z,96637.38
2018-04-23T09:57:03.502Z,96646.37
2018-04-23T09:59:29.413Z,96646.80
2018-04-23T10:01:55.338Z,96640.97
2018-04-23T10:04:25.111Z,96638.77
2018-04-23T10:06:50.987Z,96647.80
2018-04-23T10:09:18.968Z,96643.62
2018-04-23T10:11:44.851Z,96637.55
2018-04-23T10:14:12.915Z,96638.86
2018-04-23T10:16:38.821Z,96634.61
2018-04-23T10:19:07.544Z,96637.88
2018-04-23T10:21:34.290Z,96642.05
2018-04-23T10:24:03.190Z,96645.28
2018-04-23T10:26:29.056Z,96641.20
2018-04-23T10:28:58.804Z,96643.20
2018-04-23T10:31:24.730Z,96641.83
2018-04-23T10:33:50.597Z,96638.81
2018-04-23T10:36:16.479Z,96646.11
2018-04-23T10:38:42.423Z,96642.83
2018-04-23T10:41:08.789Z,96644.59
2018-04-23T10:43:34.721Z,96654.16
2018-04-23T10:46:03.593Z,96646.69
2018-04-23T10:48:29.479Z,96645.18
2018-04-23T10:50:58.841Z,96650.00
2018-04-23T10:53:24.757Z,96645.20
2018-04-23T10:55:54.092Z,96647.47
2018-04-23T10:58:19.970Z,96647.38
2018-04-23T11:00:47.938Z,96650.59
2018-04-23T11:03:13.809Z,96647.48
2018-04-23T11:05:43.355Z,96646.00
2018-04-23T11:08:09.221Z,96649.24
2018-04-23T11:10:35.155Z,96643.75
2018-04-23T11:13:01.040Z,96644.98
2018-04-23T11:15:26.933Z,96637.19
2018-04-23T11:17:54.667Z,96649.78
2018-04-23T11:20:20.538Z,96641.03
2018-04-23T11:22:49.935Z,96648.33
2018-04-23T11:25:15.862Z,96646.55
2018-04-23T11:27:43.830Z,96645.34
2018-04-23T11:30:09.728Z,96647.64
2018-04-23T11:32:39.068Z,96643.61
2018-04-23T11:35:04.969Z,96646.22
2018-04-23T11:37:34.836Z,96643.38
2018-04-23T11:40:00.765Z,96646.88
2018-04-23T11:42:28.298Z,96647.50
2018-04-23T11:44:54.181Z,96644.45
2018-04-23T11:47:20.056Z,96653.02
2018-04-23T11:49:46.131Z,96650.73
2018-04-23T11:52:12.025Z,96651.71
2018-04-23T11:54:40.011Z,96654.95
2018-04-23T11:57:05.924Z,96651.22
2018-04-23T11:59:35.277Z,96649.66
2018-04-23T12:02:01.210Z,96652.63
2018-04-23T12:04:30.453Z,96652.59
2018-04-23T12:06:56.332Z,96656.33
2018-04-23T12:09:23.846Z,96652.70
2018-04-23T12:11:49.711Z,96652.39
2018-04-23T12:14:18.462Z,96661.80
2018-04-23T12:16:44.406Z,96662.55
2018-04-23T12:19:13.803Z,96660.42
2018-04-23T12:21:39.749Z,96653.96
2018-04-23T12:24:07.980Z,96654.50
2018-04-23T12:26:33.893Z,96647.23
2018-04-23T12:28:59.750Z,96652.36
2018-04-23T12:31:25.707Z,96648.13
2018-04-23T12:33:51.566Z,96640.54
2018-04-23T12:36:20.676Z,96643.70
2018-04-23T12:38:46.549Z,96651.45
2018-04-23T12:41:14.018Z,96656.11
2018-04-23T12:43:39.948Z,96656.53
2018-04-23T12:46:08.825Z,96659.73
2018-04-23T12:48:34.695Z,96667.50
2018-04-23T12:51:03.500Z,96664.11
2018-04-23T12:53:29.439Z,96668.83
2018-04-23T12:55:58.574Z,96659.34
2018-04-23T12:58:24.427Z,96653.19
2018-04-23T13:00:50.350Z,96652.55
2018-04-23T13:03:16.282Z,96640.30
2018-04-23T13:05:42.241Z,96633.09
2018-04-23T13:08:11.182Z,96641.36
2018-04-23T13:10:37.092Z,96624.22
2018-04-23T13:13:04.821Z,96618.52
2018-04-23T13:15:30.724Z,96610.67
2018-04-23T13:18:00.084Z,96614.07
2018-04-23T13:20:25.971Z,96609.33
2018-04-23T13:22:55.625Z,96602.38
2018-04-23T13:25:21.508Z,96600.05
2018-04-23T13:27:49.126Z,96590.31
2018-04-23T13:30:15.027Z,96597.25
2018-04-23T13:32:44.298Z,96588.84
2018-04-23T13:35:10.200Z,96590.57
2018-04-23T13:37:36.112Z,96573.09
2018-04-23T13:40:02.061Z,96589.55
2018-04-23T13:42:27.968Z,96581.30
2018-04-23T13:44:56.980Z,96575.08
2018-04-23T13:47:22.965Z,96564.89
2018-04-23T13:49:50.579Z,96564.34
2018-04-23T13:52:16.493Z,96569.08
2018-04-23T13:54:44.941Z,96567.00
2018-04-23T13:57:10.858Z,96555.75
2018-04-23T13:59:40.040Z,96559.28
2018-04-23T14:02:06.014Z,96560.75
2018-04-23T14:04:35.562Z,96558.13
2018-04-23T14:07:01.569Z,96557.82
2018-04-23T14:09:28.815Z,96556.11
2018-04-23T14:11:54.707Z,96552.77
2018-04-23T14:14:20.595Z,96551.34
2018-04-23T14:16:46.494Z,96554.14
2018-04-23T14:19:12.411Z,96558.97
2018-04-23T14:21:40.847Z,96553.56
2018-04-23T14:24:08.531Z,96563.22
2018-04-23T14:26:35.586Z,96557.47
2018-04-23T14:29:01.479Z,96557.66
2018-04-23T14:31:30.070Z,96555.71
2018-04-23T14:33:56.449Z,96546.21
2018-04-23T14:36:24.719Z,96535.50
2018-04-23T14:38:50.895Z,96533.67
2018-04-23T14:41:20.484Z,96539.56
2018-04-23T14:43:46.360Z,96541.82
2018-04-23T14:46:15.948Z,96529.36
2018-04-23T14:48:41.883Z,96532.47
2018-04-23T14:51:07.762Z,96525.63
2018-04-23T14:53:33.658Z,96535.17
2018-04-23T14:55:59.563Z,96539.10
2018-04-23T14:58:25.796Z,96534.61
2018-04-23T15:00:51.710Z,96543.29
2018-04-23T15:03:20.495Z,96547.78
2018-04-23T15:05:46.423Z,96536.58
2018-04-23T15:08:16.248Z,96542.30
2018-04-23T15:10:42.129Z,96544.83
2018-04-23T15:13:10.211Z,96540.42
2018-04-23T15:15:36.135Z,96542.00
2018-04-23T15:18:05.536Z,96545.52
2018-04-23T15:20:31.411Z,96553.16
2018-04-23T15:22:59.828Z,96543.11
2018-04-23T15:25:25.683Z,96551.72
2018-04-23T15:27:51.683Z,96552.54
2018-04-23T15:30:17.625Z,96558.63
2018-04-23T15:32:43.566Z,96561.44
2018-04-23T15:35:11.279Z,96560.62
2018-04-23T15:37:37.167Z,96568.16
2018-04-23T15:40:05.890Z,96572.67
2018-04-23T15:42:31.863Z,96567.48
2018-04-23T15:45:00.630Z,96574.47
2018-04-23T15:47:26.548Z,96570.19
2018-04-23T15:49:55.334Z,96576.50
2018-04-23T15:52:21.255Z,96580.13
2018-04-23T15:54:49.999Z,96582.95
2018-04-23T15:57:15.871Z,96585.05
2018-04-23T15:59:44.803Z,96591.12
2018-04-23T16:02:10.675Z,96586.70
2018-04-23T16:04:36.575Z,96596.75
2018-04-23T16:07:02.561Z,96602.70
2018-04-23T16:09:28.488Z,96607.69
2018-04-23T16:11:56.915Z,96599.45
2018-04-23T16:14:22.826Z,96597.32
2018-04-23T16:16:52.026Z,96581.80
2018-04-23T16:19:17.948Z,96587.08
2018-04-23T16:21:47.491Z,96594.27
2018-04-23T16:24:13.359Z,96585.89
2018-04-23T16:26:40.921Z,96593.03
2018-04-23T16:29:06.811Z,96588.53
2018-04-23T16:31:36.347Z,96581.09
2018-04-23T16:34:02.242Z,96584.78
2018-04-23T16:36:31.825Z,96586.16
2018-04-23T16:38:57.728Z,96586.65
2018-04-23T16:41:23.639Z,96582.88
2018-04-23T16:43:49.569Z,96583.16
2018-04-23T16:46:15.459Z,96577.56
2018-04-23T16:48:42.387Z,96584.20
2018-04-23T16:51:08.272Z,96581.07
2018-04-23T16:53:37.658Z,96577.89
2018-04-23T16:56:03.591Z,96586.65
2018-04-23T16:58:33.110Z,96586.31
2018-04-23T17:00:58.981Z,96584.70
2018-04-23T17:03:26.410Z,96591.16
2018-04-23T17:05:52.312Z,96589.92
2018-04-23T17:08:21.763Z,96587.84
2018-04-23T17:10:47.683Z,96595.88
2018-04-23T17:13:17.443Z,96590.39
2018-04-23T17:15:43.324Z,96588.87
2018-04-23T17:18:09.241Z,96584.66
2018-04-23T17:20:35.127Z,96589.29
2018-04-23T17:23:01.092Z,96590.81
2018-04-23T17:25:27.038Z,96593.23
2018-04-23T17:27:53.407Z,96584.73
2018-04-23T17:30:22.583Z,96589.28
2018-04-23T17:32:48.499Z,96590.00
2018-04-23T17:35:16.580Z,96598.58
2018-04-23T17:37:42.523Z,96593.10
2018-04-23T17:40:12.140Z,96598.11
2018-04-23T17:42:38.099Z,96602.31
2018-04-23T17:45:07.704Z,96613.06
2018-04-23T17:47:33.639Z,96614.25
2018-04-23T17:50:00.734Z,96618.81
2018-04-23T17:52:26.624Z,96624.72
2018-04-23T17:54:53.370Z,96623.27
2018-04-23T17:57:19.240Z,96630.83
2018-04-23T17:59:45.173Z,96634.48
2018-04-23T18:02:14.099Z,96632.55
2018-04-23T18:04:40.012Z,96637.75
2018-04-23T18:07:08.977Z,96638.34
2018-04-23T18:09:34.825Z,96648.20
2018-04-23T18:12:02.771Z,96650.02
2018-04-23T18:14:28.667Z,96652.29
2018-04-23T18:16:56.512Z,96654.14
2018-04-23T18:19:24.983Z,96651.17
2018-04-23T18:21:51.164Z,96654.37
2018-04-23T18:24:17.073Z,96650.89
2018-04-23T18:26:46.459Z,96655.34
2018-04-23T18:29:12.333Z,96658.30
2018-04-23T18:31:38.414Z,96655.73
2018-04-23T18:34:04.509Z,96649.13
2018-04-23T18:36:31.130Z,96656.05
2018-04-23T18:38:57.738Z,96651.47
2018-04-23T18:41:23.643Z,96653.63
2018-04-23T18:43:52.172Z,96664.77
2018-04-23T18:46:18.114Z,96656.58
2018-04-23T18:48:47.329Z,96660.64
2018-04-23T18:51:13.231Z,96663.87
2018-04-23T18:53:42.191Z,96660.08
2018-04-23T18:56:08.391Z,96654.63
2018-04-23T18:58:36.444Z,96666.23
2018-04-23T19:01:02.340Z,96668.94
2018-04-23T19:03:31.484Z,96670.83
2018-04-23T19:05:57.401Z,96674.42
2018-04-23T19:08:23.273Z,96670.41
2018-04-23T19:10:49.216Z,96678.69
2018-04-23T19:13:15.119Z,96676.80
2018-04-23T19:15:44.534Z,96669.64
2018-04-23T19:18:10.423Z,96676.88
2018-04-23T19:20:38.494Z,96678.62
2018-04-23T19:23:04.475Z,96681.48
2018-04-23T19:25:36.649Z,96681.77
2018-04-23T19:28:03.062Z,96684.62
2018-04-23T19:30:28.996Z,96689.65
2018-04-23T19:32:54.946Z,96687.39
2018-04-23T19:35:21.876Z,96687.67
2018-04-23T19:37:47.752Z,96696.96
2018-04-23T19:40:16.553Z,96693.86
2018-04-23T19:42:44.765Z,96688.77
2018-04-23T19:45:10.773Z,96699.98
2018-04-23T19:47:36.655Z,96706.25
2018-04-23T19:50:02.591Z,96712.94
2018-04-23T19:52:28.502Z,96715.14
2018-04-23T19:54:54.408Z,96704.40
2018-04-23T19:57:24.265Z,96709.42
2018-04-23T19:59:50.154Z,96712.20
2018-04-23T20:02:17.683Z,96711.62
2018-04-23T20:04:43.564Z,96697.70
2018-04-23T20:07:12.712Z,96697.05
2018-04-23T20:09:38.814Z,96691.53
2018-04-23T20:12:08.412Z,96701.59
2018-04-23T20:14:34.400Z,96702.86
2018-04-23T20:17:03.594Z,96702.51
2018-04-23T20:19:29.472Z,96703.13
2018-04-23T20:21:55.389Z,96702.89
2018-04-23T20:24:21.295Z,96713.36
2018-04-23T20:26:47.178Z,96715.05
2018-04-23T20:29:13.870Z,96715.01
2018-04-23T20:31:39.752Z,96720.42
2018-04-23T20:34:09.179Z,96725.13
2018-04-23T20:36:35.045Z,96728.03
2018-04-23T20:39:03.317Z,96731.73
2018-04-23T20:41:29.224Z,96733.86
2018-04-23T20:43:59.031Z,96739.13
2018-04-23T20:46:24.971Z,96747.69
2018-04-23T20:48:52.466Z,96747.56
2018-04-23T20:51:18.389Z,96753.29
2018-04-23T20:53:47.950Z,96754.33
2018-04-23T20:56:13.814Z,96754.72
2018-04-23T20:58:39.725Z,96764.50
2018-04-23T21:01:05.678Z,96760.06
2018-04-23T21:03:31.564Z,96752.21
2018-04-23T21:05:59.253Z,96762.47
2018-04-23T21:08:25.114Z,96759.50
2018-04-23T21:10:53.768Z,96760.36
2018-04-23T21:13:19.700Z,96766.16
2018-04-23T21:15:48.302Z,96758.92
2018-04-23T21:18:14.236Z,96760.75
2018-04-23T21:20:43.152Z,96762.31
2018-04-23T21:23:09.070Z,96759.88
2018-04-23T21:25:38.225Z,96768.41
2018-04-23T21:28:05.174Z,96766.97
2018-04-23T21:30:32.504Z,96765.32
2018-04-23T21:32:58.645Z,96763.84
2018-04-23T21:35:24.578Z,96763.17
2018-04-23T21:37:50.493Z,96763.47
2018-04-23T21:40:16.396Z,96764.31
2018-04-23T21:42:45.772Z,96769.78
2018-04-23T21:45:11.719Z,96766.31
2018-04-23T21:47:40.791Z,96768.82
2018-04-23T21:50:06.691Z,96767.05
2018-04-23T21:52:34.175Z,96771.41
2018-04-23T21:55:00.248Z,96777.41
2018-04-23T21:57:28.580Z,96775.91
2018-04-23T21:59:54.474Z,96787.78
2018-04-23T22:02:23.499Z,96788.84
2018-04-23T22:04:49.446Z,96787.75
2018-04-23T22:07:18.802Z,96788.34
2018-04-23T22:09:44.735Z,96793.34
2018-04-23T22:12:10.663Z,96794.14
2018-04-23T22:14:36.594Z,96799.55
2018-04-23T22:17:02.607Z,96801.55
2018-04-23T22:19:29.568Z,96804.55
2018-04-23T22:21:55.482Z,96803.39
2018-04-23T22:24:25.367Z,96804.97
2018-04-23T22:26:51.308Z,96806.78
2018-04-23T22:29:18.938Z,96801.23
2018-04-23T22:31:44.868Z,96799.17
2018-04-23T22:34:14.717Z,96799.47
2018-04-23T22:36:40.652Z,96797.63
2018-04-23T22:39:08.579Z,96797.52
2018-04-23T22:41:34.492Z,96798.05
2018-04-23T22:44:04.205Z,96797.06
2018-04-23T22:46:30.157Z,96798.33
2018-04-23T22:48:56.105Z,96799.72
2018-04-23T22:51:22.031Z,96801.17
2018-04-23T22:53:47.944Z,96799.58
2018-04-23T22:56:14.859Z,96805.92
2018-04-23T22:58:40.765Z,96810.05
2018-04-23T23:01:09.506Z,96804.97
2018-04-23T23:03:35.466Z,96805.34
2018-04-23T23:06:04.771Z,96805.39
2018-04-23T23:08:30.700Z,96803.30
2018-04-23T23:10:59.853Z,96803.31
2018-04-23T23:13:25.763Z,96796.30
2018-04-23T23:15:55.239Z,96804.78
2018-04-23T23:18:21.140Z,96804.34
2018-04-23T23:20:48.598Z,96801.91
2018-04-23T23:23:14.517Z,96797.91
2018-04-23T23:25:40.394Z,96783.66
2018-04-23T23:28:06.311Z,96791.64
2018-04-23T23:30:32.210Z,96796.66
2018-04-23T23:33:01.776Z,96799.22
2018-04-23T23:35:27.724Z,96799.16
2018-04-23T23:37:55.708Z,96794.92
2018-04-23T23:40:21.559Z,96796.44
2018-04-23T23:42:51.110Z,96792.67
2018-04-23T23:45:17.032Z,96790.25
2018-04-23T23:47:44.215Z,96796.59
2018-04-23T23:50:10.161Z,96798.85
2018-04-23T23:52:38.839Z,96798.92
2018-04-23T23:55:04.752Z,96798.63
2018-04-23T23:57:33.458Z,96797.61
2018-04-23T23:59:59.396Z,96801.76
